createdAt,value
2019-02-23T00:01:07.595Z,0.93
2019-02-23T00:03:43.656Z,0.99
2019-02-23T00:06:29.021Z,0.99
2019-02-23T00:08:53.271Z,0.96
2019-02-23T00:11:29.336Z,0.87
2019-02-23T00:16:40.753Z,0.85
2019-02-23T00:19:24.393Z,0.73
2019-02-23T00:22:15.382Z,0.80
2019-02-23T00:24:51.290Z,0.70
2019-02-23T00:27:26.291Z,0.69
2019-02-23T00:30:01.088Z,0.66
2019-02-23T00:32:36.149Z,0.68
2019-02-23T00:35:11.122Z,0.70
2019-02-23T00:39:37.888Z,0.76
2019-02-23T00:42:10.880Z,0.76
2019-02-23T00:44:45.149Z,0.76
2019-02-23T00:49:04.952Z,0.74
2019-02-23T00:51:41.645Z,0.74
2019-02-23T00:54:16.138Z,0.69
2019-02-23T00:56:50.755Z,0.60
2019-02-23T00:59:25.287Z,0.56
2019-02-23T01:01:59.887Z,0.58
2019-02-23T01:04:32.775Z,0.60
2019-02-23T01:07:07.256Z,0.62
2019-02-23T01:09:41.762Z,0.63
2019-02-23T01:12:15.066Z,0.65
2019-02-23T01:14:47.857Z,0.63
2019-02-23T01:17:22.285Z,0.61
2019-02-23T01:19:56.882Z,0.61
2019-02-23T01:22:29.903Z,0.63
2019-02-23T01:25:04.307Z,0.62
2019-02-23T01:27:38.944Z,0.59
2019-02-23T01:30:14.382Z,0.60
2019-02-23T01:32:48.962Z,0.65
2019-02-23T01:35:23.368Z,0.68
2019-02-23T01:37:58.267Z,0.68
2019-02-23T01:40:34.294Z,0.68
2019-02-23T01:43:09.245Z,0.68
2019-02-23T01:45:44.077Z,0.71
2019-02-23T01:48:19.907Z,0.70
2019-02-23T01:50:58.307Z,0.69
2019-02-23T01:53:33.290Z,0.67
2019-02-23T01:56:08.119Z,0.63
2019-02-23T01:58:43.945Z,0.65
2019-02-23T02:01:20.275Z,0.60
2019-02-23T02:03:54.914Z,0.59
2019-02-23T02:06:33.657Z,0.59
2019-02-23T02:09:12.306Z,0.57
2019-02-23T02:11:48.266Z,0.57
2019-02-23T02:14:22.794Z,0.60
2019-02-23T02:16:58.298Z,0.62
2019-02-23T02:19:38.311Z,0.65
2019-02-23T02:22:13.156Z,0.70
2019-02-23T02:24:47.743Z,0.70
2019-02-23T02:27:22.319Z,0.71
2019-02-23T02:29:57.374Z,0.63
2019-02-23T02:32:34.707Z,0.56
2019-02-23T02:35:11.411Z,0.56
2019-02-23T02:37:47.310Z,0.47
2019-02-23T02:40:21.963Z,0.53
2019-02-23T02:42:55.025Z,0.62
2019-02-23T02:45:29.309Z,0.65
2019-02-23T02:48:05.820Z,0.57
2019-02-23T02:50:38.887Z,0.57
2019-02-23T02:53:14.075Z,0.46
2019-02-23T02:55:47.096Z,0.46
2019-02-23T02:58:23.269Z,0.48
2019-02-23T03:00:58.306Z,0.48
2019-02-23T03:03:33.149Z,0.45
2019-02-23T03:06:07.955Z,0.56
2019-02-23T03:08:52.306Z,0.59
2019-02-23T03:11:36.685Z,0.58
2019-02-23T03:14:22.990Z,0.59
2019-02-23T03:17:01.769Z,0.45
2019-02-23T03:19:46.445Z,0.45
2019-02-23T03:22:20.913Z,0.48
2019-02-23T03:25:04.217Z,0.40
2019-02-23T03:27:39.975Z,0.45
2019-02-23T03:30:15.306Z,0.50
2019-02-23T03:32:50.316Z,0.50
2019-02-23T03:35:25.322Z,0.58
2019-02-23T03:38:04.971Z,0.55
2019-02-23T03:40:41.977Z,0.46
2019-02-23T03:43:16.966Z,0.36
2019-02-23T03:45:57.972Z,0.36
2019-02-23T03:48:32.956Z,0.30
2019-02-23T03:51:29.421Z,0.34
2019-02-23T03:53:51.116Z,0.34
2019-02-23T03:56:26.289Z,0.28
2019-02-23T03:59:24.856Z,0.28
2019-02-23T04:01:59.995Z,0.16
2019-02-23T04:04:34.931Z,0.06
2019-02-23T04:07:08.285Z,0.06
2019-02-23T04:09:46.415Z,0.14
2019-02-23T04:12:29.926Z,0.16
2019-02-23T04:15:40.988Z,0.18
2019-02-23T04:18:19.976Z,0.18
2019-02-23T04:21:01.749Z,0.19
2019-02-23T04:23:33.122Z,0.07
2019-02-23T04:26:17.743Z,0.07
2019-02-23T04:28:52.319Z,0.07
2019-02-23T04:31:27.966Z,-0.09
2019-02-23T04:34:02.798Z,-0.05
2019-02-23T04:36:37.090Z,-0.05
2019-02-23T04:39:22.016Z,-0.04
2019-02-23T04:41:56.992Z,-0.15
2019-02-23T04:44:31.685Z,-0.15
2019-02-23T04:47:05.296Z,-0.26
2019-02-23T04:49:40.273Z,-0.40
2019-02-23T04:52:15.295Z,-0.48
2019-02-23T04:54:50.677Z,-0.48
2019-02-23T04:57:25.761Z,-0.49
2019-02-23T05:00:10.317Z,-0.62
2019-02-23T05:02:45.304Z,-0.62
2019-02-23T05:05:48.823Z,-0.78
2019-02-23T05:08:26.715Z,-0.64
2019-02-23T05:14:15.075Z,-0.75
2019-02-23T05:16:53.310Z,-0.78
2019-02-23T05:19:28.310Z,-0.78
2019-02-23T05:22:03.467Z,-0.79
2019-02-23T05:24:43.200Z,-0.65
2019-02-23T05:27:54.315Z,-0.65
2019-02-23T05:30:34.565Z,-0.67
2019-02-23T05:34:12.406Z,-0.67
2019-02-23T05:37:30.017Z,-0.58
2019-02-23T05:41:07.832Z,-0.54
2019-02-23T05:43:46.292Z,-0.54
2019-02-23T05:46:26.613Z,-0.43
2019-02-23T05:49:12.305Z,-0.41
2019-02-23T05:52:21.765Z,-0.42
2019-02-23T06:01:39.175Z,-0.52
2019-02-23T06:04:13.956Z,-0.55
2019-02-23T06:06:59.653Z,-0.59
2019-02-23T06:09:42.296Z,-0.59
2019-02-23T06:12:17.289Z,-0.51
2019-02-23T06:14:53.306Z,-0.43
2019-02-23T06:17:28.312Z,-0.35
2019-02-23T06:20:03.332Z,-0.42
2019-02-23T06:22:46.907Z,-0.39
2019-02-23T06:25:47.725Z,-0.40
2019-02-23T06:28:58.671Z,-0.39
2019-02-23T06:31:31.284Z,-0.20
2019-02-23T06:34:32.377Z,-0.30
2019-02-23T06:37:40.807Z,-0.30
2019-02-23T06:40:20.721Z,-0.31
2019-02-23T06:43:22.837Z,-0.19
2019-02-23T06:46:33.578Z,-0.15
2019-02-23T06:49:22.907Z,-0.18
2019-02-23T06:52:10.655Z,-0.18
2019-02-23T06:55:08.721Z,-0.06
2019-02-23T06:57:43.494Z,0.10
2019-02-23T07:00:23.612Z,0.24
2019-02-23T07:03:20.014Z,0.57
2019-02-23T07:06:07.971Z,0.62
2019-02-23T07:08:48.300Z,1.04
2019-02-23T07:11:26.398Z,1.04
2019-02-23T07:14:14.668Z,1.19
2019-02-23T07:16:52.339Z,1.28
2019-02-23T07:19:46.250Z,1.41
2019-02-23T07:22:22.301Z,1.69
2019-02-23T07:24:57.107Z,1.94
2019-02-23T07:27:34.611Z,2.12
2019-02-23T07:30:11.562Z,2.38
2019-02-23T07:32:47.361Z,2.38
2019-02-23T07:35:27.954Z,2.51
2019-02-23T07:38:10.885Z,3.24
2019-02-23T07:40:53.395Z,3.24
2019-02-23T07:43:28.505Z,3.62
2019-02-23T07:46:12.312Z,3.75
2019-02-23T07:48:54.625Z,4.16
2019-02-23T07:51:29.496Z,4.69
2019-02-23T07:54:04.468Z,5.07
2019-02-23T07:58:17.969Z,5.57
2019-02-23T08:00:54.521Z,5.90
2019-02-23T08:03:53.217Z,5.90
2019-02-23T08:07:02.593Z,6.03
2019-02-23T08:09:47.643Z,6.50
2019-02-23T08:12:25.294Z,6.82
2019-02-23T08:15:03.966Z,7.14
2019-02-23T08:18:07.010Z,7.70
2019-02-23T08:21:34.896Z,7.93
2019-02-23T08:24:13.155Z,8.26
2019-02-23T08:26:52.285Z,9.27
2019-02-23T08:29:26.949Z,9.77
2019-02-23T08:32:15.145Z,10.03
2019-02-23T08:35:07.873Z,10.18
2019-02-23T08:37:50.311Z,10.35
2019-02-23T08:40:23.585Z,10.82
2019-02-23T08:43:02.969Z,11.84
2019-02-23T08:45:39.960Z,12.38
2019-02-23T08:48:14.889Z,12.83
2019-02-23T08:50:48.134Z,12.83
2019-02-23T08:53:22.964Z,13.40
2019-02-23T08:55:57.972Z,13.40
2019-02-23T08:58:39.958Z,13.68
2019-02-23T09:01:25.577Z,14.41
2019-02-23T09:04:25.619Z,14.41
2019-02-23T09:07:09.418Z,14.69
2019-02-23T09:09:45.297Z,15.33
2019-02-23T09:12:25.571Z,15.28
2019-02-23T09:15:02.324Z,15.09
2019-02-23T09:17:37.328Z,15.27
2019-02-23T09:20:29.279Z,15.76
2019-02-23T09:23:04.987Z,14.97
2019-02-23T09:25:44.967Z,14.33
2019-02-23T09:28:25.516Z,14.51
2019-02-23T09:31:05.912Z,14.51
2019-02-23T09:33:41.431Z,14.41
2019-02-23T09:36:25.322Z,14.56
2019-02-23T09:39:14.958Z,14.37
2019-02-23T09:42:07.402Z,14.33
2019-02-23T09:44:46.546Z,13.79
2019-02-23T09:47:24.594Z,13.35
2019-02-23T09:50:36.568Z,13.43
2019-02-23T09:53:41.227Z,13.08
2019-02-23T09:56:37.401Z,12.30
2019-02-23T09:59:34.970Z,12.30
2019-02-23T10:02:45.782Z,12.19
2019-02-23T10:05:41.457Z,12.04
2019-02-23T10:08:49.971Z,12.04
2019-02-23T10:11:34.110Z,12.37
2019-02-23T10:14:11.265Z,11.79
2019-02-23T10:17:12.746Z,11.97
2019-02-23T10:20:18.875Z,12.15
2019-02-23T10:23:00.479Z,12.15
2019-02-23T10:25:38.775Z,12.35
2019-02-23T10:28:13.283Z,12.73
2019-02-23T10:30:51.282Z,12.94
2019-02-23T10:33:30.371Z,13.01
2019-02-23T10:36:05.154Z,13.42
2019-02-23T10:38:43.288Z,13.24
2019-02-23T10:46:21.699Z,13.40
2019-02-23T10:49:02.013Z,13.81
2019-02-23T10:51:38.117Z,13.68
2019-02-23T10:54:22.138Z,13.76
2019-02-23T10:57:08.566Z,13.52
2019-02-23T10:59:43.777Z,13.52
2019-02-23T11:02:39.120Z,13.46
2019-02-23T11:05:20.971Z,13.50
2019-02-23T11:07:59.263Z,13.84
2019-02-23T11:10:35.433Z,13.84
2019-02-23T11:13:16.543Z,14.12
2019-02-23T11:15:51.406Z,14.45
2019-02-23T11:18:27.447Z,14.60
2019-02-23T11:21:03.390Z,15.90
2019-02-23T11:23:44.327Z,15.90
2019-02-23T11:26:23.566Z,16.80
2019-02-23T11:28:58.371Z,18.60
2019-02-23T11:31:37.582Z,18.60
2019-02-23T11:34:22.155Z,19.02
2019-02-23T11:37:00.422Z,19.56
2019-02-23T11:39:37.400Z,20.37
2019-02-23T11:42:12.304Z,19.81
2019-02-23T11:44:49.312Z,19.62
2019-02-23T11:47:27.301Z,19.62
2019-02-23T11:50:02.459Z,18.97
2019-02-23T11:52:39.611Z,19.72
2019-02-23T11:55:17.645Z,19.56
2019-02-23T11:57:55.242Z,19.56
2019-02-23T12:00:33.374Z,19.79
2019-02-23T12:03:13.322Z,19.75
2019-02-23T12:05:55.151Z,21.45
2019-02-23T12:08:32.313Z,21.45
2019-02-23T12:11:11.497Z,21.64
2019-02-23T12:13:47.894Z,22.27
2019-02-23T12:16:22.443Z,21.48
2019-02-23T12:18:58.613Z,21.58
2019-02-23T12:21:38.309Z,20.78
2019-02-23T12:24:23.970Z,21.01
2019-02-23T12:27:02.599Z,21.01
2019-02-23T12:29:56.960Z,20.85
2019-02-23T12:32:35.262Z,21.08
2019-02-23T12:35:10.725Z,20.19
2019-02-23T12:37:44.130Z,19.94
2019-02-23T12:40:20.598Z,19.16
2019-02-23T12:42:56.308Z,19.16
2019-02-23T12:45:44.921Z,18.95
2019-02-23T12:48:21.419Z,18.66
2019-02-23T12:50:56.303Z,19.19
2019-02-23T12:53:31.285Z,19.08
2019-02-23T12:56:14.982Z,18.72
2019-02-23T12:58:53.339Z,18.72
2019-02-23T13:01:36.109Z,18.62
2019-02-23T13:04:14.301Z,17.73
2019-02-23T13:06:49.301Z,16.62
2019-02-23T13:09:29.569Z,16.71
2019-02-23T13:12:57.948Z,16.37
2019-02-23T13:16:02.527Z,16.07
2019-02-23T13:19:34.290Z,16.07
2019-02-23T13:22:58.288Z,16.40
2019-02-23T13:26:57.506Z,17.18
2019-02-23T13:30:24.501Z,17.18
2019-02-23T13:33:53.407Z,18.26
2019-02-23T13:37:13.877Z,18.73
2019-02-23T13:40:43.934Z,18.73
2019-02-23T13:44:08.306Z,18.74
2019-02-23T13:47:54.577Z,18.74
2019-02-23T13:51:17.896Z,18.38
2019-02-23T13:54:18.683Z,17.56
2019-02-23T13:57:58.380Z,17.75
2019-02-23T14:01:34.981Z,16.79
2019-02-23T14:05:20.958Z,15.86
2019-02-23T14:08:55.759Z,14.83
2019-02-23T14:12:05.964Z,14.83
2019-02-23T14:16:05.372Z,14.22
2019-02-23T14:19:21.741Z,13.43
2019-02-23T14:22:45.131Z,13.43
2019-02-23T14:26:08.319Z,13.21
2019-02-23T14:29:16.939Z,13.18
2019-02-23T14:32:48.296Z,12.95
2019-02-23T14:35:59.330Z,12.39
2019-02-23T14:39:34.294Z,12.39
2019-02-23T14:42:32.677Z,11.86
2019-02-23T14:45:52.193Z,11.86
2019-02-23T14:48:56.075Z,11.37
2019-02-23T14:52:36.419Z,11.21
2019-02-23T14:56:12.350Z,11.21
2019-02-23T14:59:40.025Z,10.96
2019-02-23T15:02:36.298Z,10.87
2019-02-23T15:06:04.325Z,10.63
2019-02-23T15:09:51.206Z,10.07
2019-02-23T15:13:35.820Z,10.07
2019-02-23T15:16:57.659Z,9.97
2019-02-23T15:20:10.489Z,9.88
2019-02-23T15:23:25.298Z,9.66
2019-02-23T15:26:44.906Z,9.54
2019-02-23T15:30:40.275Z,9.40
2019-02-23T15:34:00.297Z,9.24
2019-02-23T15:37:41.962Z,9.03
2019-02-23T15:40:47.162Z,8.70
2019-02-23T15:44:21.800Z,8.70
2019-02-23T15:47:34.661Z,8.60
2019-02-23T15:50:21.449Z,8.47
2019-02-23T15:53:03.522Z,8.41
2019-02-23T15:55:47.395Z,8.42
2019-02-23T15:58:37.392Z,8.26
2019-02-23T16:01:18.594Z,8.17
2019-02-23T16:04:07.567Z,8.10
2019-02-23T16:06:54.005Z,8.05
2019-02-23T16:12:58.104Z,7.83
2019-02-23T16:15:48.981Z,7.68
2019-02-23T16:18:59.710Z,7.45
2019-02-23T16:25:38.540Z,7.31
2019-02-23T16:28:29.692Z,7.19
2019-02-23T16:31:20.285Z,6.99
2019-02-23T16:34:07.176Z,6.82
2019-02-23T16:37:10.448Z,6.62
2019-02-23T16:40:14.267Z,6.45
2019-02-23T16:43:09.969Z,6.30
2019-02-23T16:46:11.098Z,6.17
2019-02-23T16:49:25.784Z,6.02
2019-02-23T16:52:13.394Z,5.98
2019-02-23T16:54:50.314Z,5.87
2019-02-23T16:57:27.313Z,5.74
2019-02-23T17:00:03.484Z,5.74
2019-02-23T17:02:43.450Z,5.65
2019-02-23T17:05:20.805Z,5.53
2019-02-23T17:07:58.985Z,5.41
2019-02-23T17:10:51.837Z,5.18
2019-02-23T17:13:25.306Z,5.03
2019-02-23T17:16:05.575Z,4.97
2019-02-23T17:18:51.048Z,4.96
2019-02-23T17:21:30.302Z,4.89
2019-02-23T17:24:09.705Z,4.77
2019-02-23T17:26:46.685Z,4.77
2019-02-23T17:29:35.151Z,4.53
2019-02-23T17:32:04.703Z,4.56
2019-02-23T17:34:39.304Z,4.51
2019-02-23T17:37:38.420Z,4.52
2019-02-23T17:40:08.831Z,4.47
2019-02-23T17:42:43.297Z,4.41
2019-02-23T17:48:27.765Z,4.41
2019-02-23T17:51:20.310Z,4.34
2019-02-23T17:53:55.302Z,4.31
2019-02-23T17:56:32.252Z,4.21
2019-02-23T17:59:18.993Z,4.21
2019-02-23T18:01:54.118Z,4.12
2019-02-23T18:04:28.433Z,4.12
2019-02-23T18:07:21.118Z,4.07
2019-02-23T18:10:29.603Z,4.06
2019-02-23T18:13:07.273Z,4.02
2019-02-23T18:15:48.516Z,4.00
2019-02-23T18:18:25.317Z,3.99
2019-02-23T18:21:04.803Z,3.95
2019-02-23T18:23:54.324Z,3.94
2019-02-23T18:26:30.451Z,3.92
2019-02-23T18:29:05.301Z,3.87
2019-02-23T18:31:57.421Z,3.86
2019-02-23T18:34:48.349Z,3.86
2019-02-23T18:37:23.286Z,3.85
2019-02-23T18:40:01.443Z,3.83
2019-02-23T18:42:39.346Z,3.84
2019-02-23T18:45:20.118Z,3.78
2019-02-23T18:48:10.575Z,3.75
2019-02-23T18:50:47.462Z,3.70
2019-02-23T18:53:24.621Z,3.70
2019-02-23T18:56:36.724Z,3.67
2019-02-23T18:59:34.654Z,3.74
2019-02-23T19:02:36.756Z,3.74
2019-02-23T19:06:05.503Z,3.74
2019-02-23T19:09:29.956Z,3.56
2019-02-23T19:12:19.643Z,3.45
2019-02-23T19:15:11.621Z,3.46
2019-02-23T19:17:46.300Z,3.39
2019-02-23T19:20:48.126Z,3.40
2019-02-23T19:23:23.292Z,3.40
2019-02-23T19:26:02.938Z,3.46
2019-02-23T19:28:43.194Z,3.42
2019-02-23T19:31:16.313Z,3.41
2019-02-23T19:33:56.165Z,3.46
2019-02-23T19:36:37.492Z,3.46
2019-02-23T19:39:11.945Z,3.45
2019-02-23T19:41:47.899Z,3.37
2019-02-23T19:44:24.288Z,3.37
2019-02-23T19:47:09.096Z,3.37
2019-02-23T19:49:50.284Z,3.35
2019-02-23T19:52:29.153Z,3.31
2019-02-23T19:55:04.296Z,3.31
2019-02-23T19:57:46.987Z,3.35
2019-02-23T20:00:23.291Z,3.29
2019-02-23T20:03:01.519Z,3.29
2019-02-23T20:05:42.793Z,3.28
2019-02-23T20:08:21.730Z,3.26
2019-02-23T20:11:01.185Z,3.26
2019-02-23T20:13:37.301Z,3.24
2019-02-23T20:16:16.074Z,3.32
2019-02-23T20:18:52.128Z,3.32
2019-02-23T20:21:34.570Z,3.27
2019-02-23T20:24:21.587Z,3.27
2019-02-23T20:27:07.683Z,3.23
2019-02-23T20:29:49.701Z,3.17
2019-02-23T20:32:34.315Z,3.12
2019-02-23T20:35:18.020Z,3.08
2019-02-23T20:37:56.332Z,3.04
2019-02-23T20:40:33.301Z,3.06
2019-02-23T20:43:08.305Z,3.04
2019-02-23T20:45:43.368Z,3.01
2019-02-23T20:48:26.397Z,3.02
2019-02-23T20:51:12.425Z,2.98
2019-02-23T20:54:05.299Z,2.98
2019-02-23T20:56:45.426Z,2.98
2019-02-23T20:59:31.273Z,2.97
2019-02-23T21:02:48.681Z,2.98
2019-02-23T21:05:44.653Z,2.96
2019-02-23T21:08:29.871Z,2.96
2019-02-23T21:11:13.059Z,2.90
2019-02-23T21:14:06.311Z,2.95
2019-02-23T21:16:41.500Z,2.95
2019-02-23T21:19:28.176Z,2.92
2019-02-23T21:21:59.502Z,2.88
2019-02-23T21:24:51.684Z,2.87
2019-02-23T21:27:29.956Z,2.90
2019-02-23T21:30:08.358Z,2.86
2019-02-23T21:32:44.301Z,2.86
2019-02-23T21:35:21.294Z,2.84
2019-02-23T21:37:55.989Z,2.82
2019-02-23T21:40:32.392Z,2.82
2019-02-23T21:43:12.748Z,2.82
2019-02-23T21:45:49.368Z,2.79
2019-02-23T21:48:25.306Z,2.82
2019-02-23T21:50:59.943Z,2.83
2019-02-23T21:53:33.154Z,2.79
2019-02-23T21:56:21.284Z,2.76
2019-02-23T21:59:04.858Z,2.76
2019-02-23T22:01:49.573Z,2.69
2019-02-23T22:04:24.310Z,2.69
2019-02-23T22:07:12.638Z,2.65
2019-02-23T22:09:50.304Z,2.65
2019-02-23T22:12:24.933Z,2.67
2019-02-23T22:15:12.292Z,2.64
2019-02-23T22:17:48.942Z,2.53
2019-02-23T22:20:30.949Z,2.53
2019-02-23T22:23:07.288Z,2.57
2019-02-23T22:25:44.949Z,2.58
2019-02-23T22:28:22.334Z,2.51
2019-02-23T22:31:10.991Z,2.51
2019-02-23T22:34:01.393Z,2.53
2019-02-23T22:36:37.303Z,2.52
2019-02-23T22:39:11.952Z,2.52
2019-02-23T22:42:08.173Z,2.51
2019-02-23T22:44:43.421Z,2.49
2019-02-23T22:47:21.969Z,2.45
2019-02-23T22:52:26.434Z,2.52
2019-02-23T22:55:06.980Z,2.45
2019-02-23T22:57:45.300Z,2.42
2019-02-23T23:00:48.374Z,2.40
2019-02-23T23:03:42.809Z,2.44
2019-02-23T23:06:21.308Z,2.42
2019-02-23T23:09:02.144Z,2.38
2019-02-23T23:11:38.928Z,2.39
2019-02-23T23:14:24.616Z,2.56
2019-02-23T23:17:32.330Z,2.58
2019-02-23T23:20:17.245Z,2.54
2019-02-23T23:23:11.304Z,2.54
2019-02-23T23:26:01.210Z,2.48
2019-02-23T23:28:40.586Z,2.44
2019-02-23T23:31:32.425Z,2.37
2019-02-23T23:34:17.606Z,2.39
2019-02-23T23:37:16.770Z,2.45
2019-02-23T23:39:50.481Z,2.43
2019-02-23T23:42:25.295Z,2.47
2019-02-23T23:45:07.601Z,2.35
2019-02-23T23:47:43.788Z,2.35
2019-02-23T23:50:17.149Z,2.37
2019-02-23T23:52:53.151Z,2.30
2019-02-23T23:55:27.979Z,2.33
2019-02-23T23:58:03.965Z,2.31
